Aviation Digital Data Service (ADDS)

Output produced by METARs form (1018 UTC 01 November 2014)
found at http://www.aviationweather.gov/adds/metars/
 
KLGA 010844Z 0109/0206 04017G27KT 5SM -RA BR OVC015 
     FM011700 36021G31KT 5SM -RA BR OVC015 
     FM012300 35022G32KT P6SM BKN025 OVC035 
     FM020300 34024G34KT P6SM SCT025 OVC040